Time;durP1;ratioP1;P1;durP2;ratioP2;P2;SDS_P1;SDS_P2;PMS_P1;PMS_P2;Temp;Humidity;BMP_temperature;BMP_pressure;BME280_temperature;BME280_humidity;BME280_pressure;Samples;Min_cycle;Max_cycle;Signal;HPM_P1;HPM_P2
2021/10/02 00:35:47;;;;;;;1.33;0.90;;;22.40;97.60;;;;;;5094356;28;20295;-67
2021/10/02 00:46:16;;;;;;;4.10;1.03;;;22.60;97.20;;;;;;5083708;28;20182;-79
2021/10/02 00:48:44;;;;;;;1.53;0.90;;;22.70;97.30;;;;;;5089681;28;20251;-78
2021/10/02 00:51:13;;;;;;;2.87;0.90;;;22.80;97.00;;;;;;5093972;28;20503;-80
2021/10/02 00:53:41;;;;;;;2.43;1.20;;;23.00;96.60;;;;;;5091252;28;20198;-73
2021/10/02 00:56:10;;;;;;;2.17;1.10;;;23.10;96.70;;;;;;5094017;28;20647;-75
2021/10/02 00:58:43;;;;;;;1.60;0.90;;;23.30;96.20;;;;;;5087623;28;20171;-72
2021/10/02 01:01:12;;;;;;;2.00;0.90;;;23.40;95.50;;;;;;5093960;28;20186;-80
2021/10/02 01:04:09;;;;;;;2.83;0.80;;;23.50;94.90;;;;;;5093812;28;20182;-77
2021/10/02 01:06:48;;;;;;;1.43;0.90;;;23.50;94.90;;;;;;5081095;28;20194;-78
2021/10/02 01:10:11;;;;;;;1.37;1.00;;;22.90;95.40;;;;;;5093239;28;20186;-68
2021/10/02 01:13:05;;;;;;;2.13;1.43;;;23.10;95.40;;;;;;5042735;28;20245;-77
2021/10/02 01:15:33;;;;;;;5.17;1.13;;;23.20;95.20;;;;;;5075423;28;20285;-75
2021/10/02 01:18:08;;;;;;;1.13;0.80;;;23.60;94.60;;;;;;5084176;28;20186;-77
2021/10/02 01:21:11;;;;;;;1.17;1.07;;;23.80;94.00;;;;;;5074337;28;20660;-75
2021/10/02 01:24:12;;;;;;;0.80;0.60;;;23.90;93.60;;;;;;5043587;28;20180;-73
2021/10/02 01:26:47;;;;;;;0.63;0.60;;;23.50;93.60;;;;;;5091359;28;20179;-85
2021/10/02 01:29:16;;;;;;;0.70;0.60;;;23.20;93.40;;;;;;5093410;28;20179;-75
2021/10/02 01:32:00;;;;;;;1.50;0.70;;;23.20;92.90;;;;;;5093292;28;20210;-81
2021/10/02 01:35:01;;;;;;;3.03;0.70;;;23.10;93.00;;;;;;5093914;28;20220;-72
2021/10/02 01:48:18;;;;;;;1.00;0.50;;;24.00;91.80;;;;;;5093934;28;20546;-69
2021/10/02 01:50:49;;;;;;;3.10;0.50;;;24.20;91.70;;;;;;5072577;28;20182;-77
2021/10/02 01:53:17;;;;;;;0.77;0.57;;;24.20;91.60;;;;;;5073343;28;20175;-68
2021/10/02 01:55:47;;;;;;;2.30;0.70;;;24.00;91.80;;;;;;5092467;28;20181;-76
2021/10/02 01:58:18;;;;;;;1.60;0.60;;;23.80;92.20;;;;;;5078149;28;20262;-82
2021/10/02 02:00:48;;;;;;;0.80;0.60;;;24.40;92.70;;;;;;5072484;28;20156;-68
2021/10/02 02:03:21;;;;;;;1.03;0.70;;;24.80;91.70;;;;;;5091527;28;20178;-68
2021/10/02 02:05:49;;;;;;;0.73;0.53;;;25.20;91.00;;;;;;5091776;28;20641;-74
2021/10/02 02:08:24;;;;;;;0.60;0.40;;;25.20;90.50;;;;;;5092713;28;20178;-69
2021/10/02 02:10:53;;;;;;;0.40;0.40;;;24.90;89.80;;;;;;5092423;28;20185;-75
2021/10/02 02:13:21;;;;;;;0.40;0.40;;;24.50;90.00;;;;;;5092109;28;20189;-82
2021/10/02 02:15:53;;;;;;;0.50;0.50;;;24.50;90.30;;;;;;5091646;28;20854;-70
2021/10/02 02:18:24;;;;;;;0.53;0.53;;;24.70;90.40;;;;;;5092697;28;20262;-75
2021/10/02 02:21:05;;;;;;;2.20;0.57;;;25.20;90.40;;;;;;5091673;28;20174;-77
2021/10/02 02:23:32;;;;;;;0.30;0.30;;;25.60;87.20;;;;;;5092059;28;20643;-78
2021/10/02 02:26:03;;;;;;;0.50;0.40;;;25.50;86.70;;;;;;5091997;28;20326;-80
2021/10/02 02:28:32;;;;;;;0.80;0.40;;;25.20;86.40;;;;;;5092567;28;20206;-72
2021/10/02 02:31:00;;;;;;;2.33;0.50;;;25.10;86.70;;;;;;5093044;28;20667;-74
2021/10/02 02:33:27;;;;;;;0.60;0.50;;;24.50;88.90;;;;;;5092563;28;20175;-81
2021/10/02 02:35:55;;;;;;;0.30;0.30;;;24.30;88.20;;;;;;5092430;28;20198;-78
2021/10/02 02:38:22;;;;;;;0.90;0.50;;;24.10;89.10;;;;;;5092746;28;20188;-78
2021/10/02 02:40:50;;;;;;;0.50;0.40;;;24.20;89.60;;;;;;5092117;28;20194;-80
2021/10/02 02:43:18;;;;;;;2.93;0.67;;;24.30;90.10;;;;;;5092559;28;20182;-80
2021/10/02 02:45:53;;;;;;;0.60;0.43;;;24.40;89.30;;;;;;5092422;28;20198;-79
2021/10/02 02:48:26;;;;;;;0.63;0.50;;;24.50;89.10;;;;;;5092767;28;20254;-77
2021/10/02 02:51:10;;;;;;;1.70;0.50;;;24.40;87.70;;;;;;5092039;28;20186;-76
2021/10/02 02:53:48;;;;;;;2.43;0.50;;;24.10;89.40;;;;;;5091696;28;20187;-76
2021/10/02 02:56:42;;;;;;;0.50;0.50;;;24.20;90.10;;;;;;5092485;28;20269;-80
2021/10/02 02:59:28;;;;;;;1.27;0.40;;;24.30;90.10;;;;;;5092615;28;20589;-81
2021/10/02 03:01:58;;;;;;;0.80;0.50;;;24.10;89.60;;;;;;5079042;28;20175;-77
2021/10/02 03:04:34;;;;;;;0.50;0.40;;;23.90;89.70;;;;;;5086451;28;20182;-78
2021/10/02 03:07:04;;;;;;;0.80;0.67;;;24.10;89.50;;;;;;5095218;28;20226;-78
2021/10/02 03:09:37;;;;;;;1.27;0.87;;;24.60;89.60;;;;;;5096735;28;20174;-76
2021/10/02 03:12:06;;;;;;;0.83;0.53;;;25.40;89.60;;;;;;5096393;28;20211;-74
2021/10/02 03:14:35;;;;;;;4.13;0.97;;;26.00;88.20;;;;;;5095775;28;20297;-77
2021/10/02 03:17:06;;;;;;;1.13;0.67;;;26.10;86.70;;;;;;5096149;28;20178;-79
2021/10/02 03:19:37;;;;;;;2.23;1.00;;;25.70;87.70;;;;;;5089553;28;20227;-81
2021/10/02 03:22:07;;;;;;;6.70;1.50;;;24.90;91.90;;;;;;5096300;28;20589;-73
2021/10/02 03:24:39;;;;;;;3.33;1.17;;;24.10;93.80;;;;;;5093241;28;20166;-69
2021/10/02 03:27:09;;;;;;;1.47;1.07;;;23.70;94.60;;;;;;5095558;28;20181;-70
2021/10/02 03:29:38;;;;;;;2.77;1.53;;;23.20;95.10;;;;;;5090821;28;20254;-73
2021/10/02 03:32:07;;;;;;;1.60;1.10;;;22.90;96.10;;;;;;5087554;28;20647;-80
2021/10/02 03:34:36;;;;;;;3.00;1.40;;;22.80;97.10;;;;;;5095545;28;20205;-79
2021/10/02 03:37:04;;;;;;;3.63;1.83;;;22.70;97.20;;;;;;5087030;28;20171;-80
2021/10/02 03:39:31;;;;;;;3.23;1.20;;;22.40;97.60;;;;;;5097620;28;20193;-78
2021/10/02 03:42:05;;;;;;;3.07;1.43;;;22.40;98.00;;;;;;5114071;28;20185;-79
2021/10/02 03:44:32;;;;;;;6.10;1.33;;;22.50;98.10;;;;;;5099461;28;20182;-78
2021/10/02 03:46:59;;;;;;;4.27;1.27;;;23.50;97.00;;;;;;5094574;28;20178;-71
2021/10/02 03:49:27;;;;;;;1.83;1.30;;;24.40;95.50;;;;;;5083390;28;20268;-78
2021/10/02 03:51:54;;;;;;;3.23;1.30;;;24.70;94.50;;;;;;5095054;28;20179;-81
2021/10/02 03:54:21;;;;;;;4.30;1.10;;;25.30;93.80;;;;;;5093923;28;20210;-75
2021/10/02 03:56:49;;;;;;;2.37;1.20;;;25.40;93.50;;;;;;5095262;28;20663;-83
2021/10/02 03:59:17;;;;;;;3.83;1.10;;;25.40;93.10;;;;;;5093715;28;20202;-79
2021/10/02 04:01:44;;;;;;;2.37;1.10;;;25.50;92.00;;;;;;5094422;28;20575;-78
2021/10/02 04:04:12;;;;;;;3.03;0.90;;;25.40;92.10;;;;;;5095387;28;20177;-71
2021/10/02 04:06:39;;;;;;;3.20;1.17;;;25.40;92.70;;;;;;5095129;28;20206;-76
2021/10/02 04:09:07;;;;;;;7.40;1.10;;;26.00;91.80;;;;;;5095179;28;20715;-78
2021/10/02 04:11:34;;;;;;;3.17;1.10;;;25.40;91.70;;;;;;5094928;28;20250;-78
2021/10/02 04:14:03;;;;;;;3.50;1.00;;;25.10;91.90;;;;;;5095171;28;20292;-72
2021/10/02 04:16:31;;;;;;;3.73;0.90;;;25.50;91.80;;;;;;5074927;28;20510;-69
2021/10/02 04:18:59;;;;;;;2.37;0.90;;;25.70;91.60;;;;;;5075772;28;20625;-69
2021/10/02 04:21:27;;;;;;;1.93;0.90;;;25.60;91.30;;;;;;5094843;28;20171;-77
2021/10/02 04:23:54;;;;;;;2.90;1.10;;;25.00;91.40;;;;;;5093665;28;20198;-74
2021/10/02 04:26:22;;;;;;;1.23;0.80;;;24.10;91.90;;;;;;5094705;28;20182;-73
2021/10/02 04:28:50;;;;;;;1.48;0.80;;;23.50;92.70;;;;;;5094074;28;20399;-73
2021/10/02 04:31:18;;;;;;;6.13;1.37;;;23.00;93.10;;;;;;5094662;28;20170;-73
2021/10/02 04:33:46;;;;;;;3.57;0.90;;;22.60;94.50;;;;;;5094511;28;20194;-74
2021/10/02 04:36:14;;;;;;;1.40;0.80;;;22.60;94.60;;;;;;5094776;28;20217;-77
2021/10/02 04:38:42;;;;;;;0.87;0.70;;;22.60;95.00;;;;;;5094265;28;20744;-75
2021/10/02 04:41:10;;;;;;;5.20;0.93;;;22.70;95.80;;;;;;5102123;28;20178;-73
2021/10/02 04:43:41;;;;;;;1.73;1.13;;;22.80;95.50;;;;;;5088873;28;20374;-72
2021/10/02 04:46:10;;;;;;;2.73;1.30;;;22.40;96.30;;;;;;5090950;28;20189;-76
2021/10/02 04:48:38;;;;;;;2.40;1.10;;;22.10;97.00;;;;;;5107326;28;20262;-74
2021/10/02 04:51:06;;;;;;;2.17;1.20;;;21.80;97.80;;;;;;5083284;28;20178;-71
2021/10/02 04:53:34;;;;;;;1.93;1.23;;;21.70;98.80;;;;;;5092966;28;20543;-70
2021/10/02 04:56:05;;;;;;;2.20;0.90;;;21.50;98.70;;;;;;5093994;28;20194;-77
2021/10/02 04:58:32;;;;;;;2.13;1.00;;;21.40;99.30;;;;;;5094196;28;20581;-77
2021/10/02 05:01:02;;;;;;;3.93;1.30;;;21.40;99.50;;;;;;5093857;28;20186;-71
2021/10/02 05:03:29;;;;;;;1.37;0.97;;;21.40;99.80;;;;;;5077568;28;20634;-71
2021/10/02 05:05:57;;;;;;;3.43;1.17;;;21.30;99.90;;;;;;5091616;28;20273;-73
2021/10/02 05:08:24;;;;;;;5.53;1.17;;;21.30;99.90;;;;;;5094784;28;20175;-72
2021/10/02 05:10:51;;;;;;;4.60;1.80;;;21.00;99.90;;;;;;5094771;28;20197;-76
2021/10/02 05:13:18;;;;;;;9.13;2.53;;;20.50;99.90;;;;;;5093796;28;20603;-77
2021/10/02 05:15:46;;;;;;;9.40;2.30;;;20.00;99.90;;;;;;5089300;28;20256;-79
2021/10/02 05:18:13;;;;;;;6.43;1.70;;;19.70;99.90;;;;;;5093893;28;20206;-72
2021/10/02 05:20:41;;;;;;;5.10;1.60;;;19.30;99.90;;;;;;5082548;28;20178;-74
2021/10/02 05:23:08;;;;;;;3.73;1.70;;;19.10;99.90;;;;;;5088643;28;20504;-73
2021/10/02 05:25:36;;;;;;;6.60;2.40;;;19.00;99.90;;;;;;5072188;28;20223;-75
2021/10/02 05:28:05;;;;;;;8.97;5.40;;;19.00;99.90;;;;;;5090783;28;20190;-75
2021/10/02 05:30:32;;;;;;;4.97;2.43;;;19.00;99.90;;;;;;5088138;28;20209;-77
2021/10/02 05:33:03;;;;;;;15.63;10.90;;;19.40;99.90;;;;;;5091696;28;20174;-75
2021/10/02 05:35:32;;;;;;;5.53;2.83;;;19.50;99.90;;;;;;5092627;28;20211;-73
2021/10/02 05:38:00;;;;;;;3.93;1.93;;;19.60;99.90;;;;;;5092866;28;20540;-73
2021/10/02 05:40:27;;;;;;;4.07;2.00;;;19.40;99.90;;;;;;5092523;28;20194;-77
2021/10/02 05:42:55;;;;;;;3.00;1.50;;;19.50;99.90;;;;;;5092782;28;20163;-75
2021/10/02 05:45:22;;;;;;;3.93;1.47;;;19.60;99.90;;;;;;5093098;28;20178;-72
2021/10/02 05:47:49;;;;;;;3.23;1.27;;;19.60;99.90;;;;;;5094549;28;20304;-73
2021/10/02 05:50:17;;;;;;;2.33;1.40;;;19.60;99.90;;;;;;5093862;28;20670;-79
2021/10/02 05:52:44;;;;;;;2.17;1.20;;;19.60;99.90;;;;;;5093310;28;20663;-79
2021/10/02 05:55:12;;;;;;;3.73;1.33;;;20.30;99.90;;;;;;5091847;28;20222;-73
2021/10/02 05:57:39;;;;;;;3.70;1.20;;;21.30;99.90;;;;;;5092609;28;20185;-71
2021/10/02 06:00:10;;;;;;;1.87;1.10;;;21.40;99.90;;;;;;5093095;28;20170;-84
2021/10/02 06:02:37;;;;;;;4.30;1.23;;;20.90;99.90;;;;;;5092993;28;20178;-82
2021/10/02 06:05:05;;;;;;;2.93;1.20;;;20.80;99.90;;;;;;5094499;28;20231;-83
2021/10/02 06:07:35;;;;;;;3.83;1.20;;;20.40;99.90;;;;;;5093743;28;20170;-81
2021/10/02 06:10:03;;;;;;;4.03;1.70;;;20.00;99.90;;;;;;5094688;28;20178;-78
2021/10/02 06:12:33;;;;;;;2.80;1.53;;;19.90;99.90;;;;;;5092930;28;20222;-80
2021/10/02 06:15:01;;;;;;;3.23;1.30;;;19.90;99.90;;;;;;5092837;28;20209;-79
2021/10/02 06:17:29;;;;;;;4.67;1.47;;;19.90;99.90;;;;;;5092068;28;20213;-80
2021/10/02 06:19:56;;;;;;;1.77;1.20;;;20.20;99.90;;;;;;5092378;28;20235;-80
2021/10/02 06:22:23;;;;;;;2.67;1.00;;;20.60;99.90;;;;;;5092707;28;20171;-79
2021/10/02 06:24:51;;;;;;;1.70;1.13;;;21.30;99.90;;;;;;5091490;28;20192;-76
2021/10/02 06:27:18;;;;;;;2.93;1.33;;;22.20;99.90;;;;;;5092249;28;20582;-78
2021/10/02 06:29:45;;;;;;;2.97;1.10;;;22.80;99.90;;;;;;5092456;28;20190;-76
2021/10/02 06:32:13;;;;;;;1.07;0.70;;;23.10;99.90;;;;;;5092763;28;20193;-74
2021/10/02 06:34:40;;;;;;;0.87;0.60;;;22.40;99.90;;;;;;5092438;28;20210;-76
2021/10/02 06:37:07;;;;;;;2.07;0.80;;;21.80;99.90;;;;;;5085409;28;20182;-75
2021/10/02 06:39:35;;;;;;;2.60;0.80;;;21.30;99.90;;;;;;5084939;28;20175;-69
2021/10/02 06:42:02;;;;;;;0.90;0.73;;;20.80;99.90;;;;;;5088845;28;20551;-70
2021/10/02 06:44:29;;;;;;;1.90;0.90;;;20.40;99.90;;;;;;5088251;28;20182;-70
2021/10/02 06:46:57;;;;;;;2.40;1.20;;;20.40;99.90;;;;;;5095111;28;20667;-71
2021/10/02 06:49:27;;;;;;;2.60;1.17;;;20.10;99.90;;;;;;5096545;28;20182;-72
2021/10/02 06:51:56;;;;;;;2.57;1.00;;;19.90;99.90;;;;;;5094295;28;20517;-69
2021/10/02 06:54:24;;;;;;;2.50;1.10;;;19.70;99.90;;;;;;5095043;28;20216;-76
2021/10/02 06:56:51;;;;;;;2.70;1.10;;;19.50;99.90;;;;;;5093555;28;20178;-71
2021/10/02 06:59:19;;;;;;;5.13;0.90;;;19.40;99.90;;;;;;5095521;28;20186;-74
2021/10/02 07:01:46;;;;;;;3.07;1.13;;;19.30;99.90;;;;;;5094997;28;20267;-69
2021/10/02 07:04:14;;;;;;;2.40;0.93;;;19.40;99.90;;;;;;5096056;28;20522;-75
2021/10/02 07:06:41;;;;;;;5.23;1.00;;;19.40;99.90;;;;;;5094821;28;20182;-74
2021/10/02 07:09:08;;;;;;;2.70;1.50;;;19.30;99.90;;;;;;5095345;28;20270;-75
2021/10/02 07:11:36;;;;;;;4.27;2.40;;;19.30;99.90;;;;;;5094343;28;20228;-69
2021/10/02 07:14:03;;;;;;;10.20;7.77;;;19.20;99.90;;;;;;5094725;28;20218;-77
2021/10/02 07:16:30;;;;;;;6.53;3.67;;;19.00;99.90;;;;;;5094980;28;20185;-71
2021/10/02 07:18:58;;;;;;;9.47;6.50;;;18.80;99.90;;;;;;5095921;28;20690;-74
2021/10/02 07:21:25;;;;;;;2.40;1.47;;;18.70;99.90;;;;;;5095853;28;20174;-72
2021/10/02 07:23:52;;;;;;;3.63;1.50;;;18.60;99.90;;;;;;5093801;28;20613;-75
2021/10/02 07:26:20;;;;;;;2.87;1.87;;;18.50;99.90;;;;;;5094494;28;20171;-77
2021/10/02 07:28:47;;;;;;;6.47;1.70;;;18.50;99.90;;;;;;5092847;28;20194;-71
2021/10/02 07:31:14;;;;;;;6.63;1.67;;;18.30;99.90;;;;;;5096162;28;20273;-74
2021/10/02 07:33:42;;;;;;;4.20;1.70;;;18.10;99.90;;;;;;5096989;28;20294;-73
2021/10/02 07:36:09;;;;;;;7.50;1.60;;;18.10;99.90;;;;;;5106126;28;20183;-76
2021/10/02 07:38:37;;;;;;;3.13;1.47;;;18.20;99.90;;;;;;5095475;28;20186;-73
2021/10/02 07:41:04;;;;;;;5.33;1.50;;;18.20;99.90;;;;;;5105682;28;20534;-76
2021/10/02 07:43:33;;;;;;;6.27;3.00;;;18.10;99.90;;;;;;5080798;28;20189;-76
2021/10/02 07:46:01;;;;;;;6.43;3.60;;;18.20;99.90;;;;;;5095448;28;20182;-77
2021/10/02 07:48:29;;;;;;;4.67;3.23;;;18.10;99.90;;;;;;5096082;28;20175;-76
2021/10/02 07:50:58;;;;;;;3.57;1.17;;;18.10;99.90;;;;;;5095252;28;20276;-73
2021/10/02 07:53:26;;;;;;;3.80;1.50;;;18.10;99.90;;;;;;5105686;28;20230;-72
2021/10/02 07:55:55;;;;;;;6.10;4.43;;;18.00;99.90;;;;;;5094709;28;20706;-74
2021/10/02 07:58:22;;;;;;;3.03;1.70;;;17.90;99.90;;;;;;5094828;28;20228;-72
2021/10/02 08:00:53;;;;;;;4.50;1.60;;;17.90;99.90;;;;;;5095335;28;20256;-73
2021/10/02 08:03:21;;;;;;;4.77;1.80;;;17.70;99.90;;;;;;5095084;28;20179;-71
2021/10/02 08:05:50;;;;;;;2.50;1.60;;;17.70;99.90;;;;;;5094148;28;20269;-71
2021/10/02 08:08:19;;;;;;;2.27;1.47;;;17.70;99.90;;;;;;5095356;28;20193;-72
2021/10/02 08:10:49;;;;;;;4.63;1.83;;;17.70;99.90;;;;;;5079742;28;20175;-72
2021/10/02 08:13:18;;;;;;;6.27;1.93;;;17.70;99.90;;;;;;5093339;28;20266;-76
2021/10/02 08:15:47;;;;;;;3.43;1.97;;;17.70;99.90;;;;;;5094636;28;20220;-77
2021/10/02 08:18:18;;;;;;;5.93;2.00;;;17.60;99.90;;;;;;5094628;28;20190;-75
2021/10/02 08:20:47;;;;;;;7.83;3.97;;;17.70;99.90;;;;;;5094330;28;20323;-73
2021/10/02 08:23:20;;;;;;;6.80;2.47;;;17.70;99.90;;;;;;5093291;28;20262;-73
2021/10/02 08:25:47;;;;;;;8.37;6.43;;;17.80;99.90;;;;;;5094329;28;20248;-75
2021/10/02 08:28:15;;;;;;;3.73;2.00;;;17.70;99.90;;;;;;5093392;28;20170;-73
2021/10/02 08:30:44;;;;;;;4.20;1.87;;;17.40;99.90;;;;;;5086635;28;20236;-74
2021/10/02 08:33:12;;;;;;;3.10;1.77;;;17.40;99.90;;;;;;5093967;28;20185;-73
2021/10/02 08:35:41;;;;;;;4.13;1.80;;;17.20;99.90;;;;;;5092618;28;20214;-73
2021/10/02 08:38:10;;;;;;;11.73;2.83;;;17.10;99.90;;;;;;5093805;28;20180;-75
2021/10/02 08:40:38;;;;;;;3.80;1.90;;;17.10;99.90;;;;;;5093790;28;20174;-73
2021/10/02 08:43:11;;;;;;;4.37;2.20;;;17.20;99.90;;;;;;5078839;28;20202;-74
2021/10/02 08:45:40;;;;;;;5.90;2.03;;;17.20;99.90;;;;;;5093666;28;20269;-78
2021/10/02 08:48:14;;;;;;;4.63;2.10;;;17.20;99.90;;;;;;5093856;28;20174;-75
2021/10/02 08:50:43;;;;;;;4.13;2.60;;;17.10;99.90;;;;;;5093604;28;20253;-74
2021/10/02 08:53:12;;;;;;;5.70;3.47;;;17.10;99.90;;;;;;5093504;28;20184;-75
2021/10/02 08:55:40;;;;;;;5.23;2.57;;;17.20;99.90;;;;;;5083973;28;20258;-75
2021/10/02 08:58:08;;;;;;;4.97;2.57;;;17.10;99.90;;;;;;5085546;28;20174;-74
2021/10/02 09:00:38;;;;;;;4.70;2.10;;;17.10;99.90;;;;;;5089935;28;20231;-74
2021/10/02 09:03:07;;;;;;;6.93;2.27;;;17.10;99.90;;;;;;5093560;28;20173;-73
2021/10/02 09:05:35;;;;;;;3.47;2.23;;;17.10;99.90;;;;;;5092386;28;20177;-73
2021/10/02 09:08:04;;;;;;;3.97;1.90;;;17.10;99.90;;;;;;5093051;28;20199;-74
2021/10/02 09:10:35;;;;;;;3.93;2.20;;;17.00;99.90;;;;;;5092898;28;20685;-74
2021/10/02 09:13:03;;;;;;;3.73;2.10;;;17.00;99.90;;;;;;5084641;28;20229;-71
2021/10/02 09:15:30;;;;;;;2.83;1.60;;;17.00;99.90;;;;;;5088348;28;20232;-75
2021/10/02 09:17:59;;;;;;;2.63;1.70;;;16.90;99.90;;;;;;5087180;28;20601;-76
2021/10/02 09:20:27;;;;;;;3.47;1.80;;;17.00;99.90;;;;;;5093359;28;20185;-76
2021/10/02 09:22:57;;;;;;;4.10;2.30;;;16.90;99.90;;;;;;5092132;28;20203;-76
2021/10/02 09:25:27;;;;;;;5.07;2.63;;;17.00;99.90;;;;;;5090287;28;20899;-73
2021/10/02 09:28:13;;;;;;;3.83;2.37;;;17.00;99.90;;;;;;5088487;28;20290;-77
2021/10/02 09:30:44;;;;;;;6.07;3.43;;;17.00;99.90;;;;;;5092789;28;20181;-72
2021/10/02 09:33:20;;;;;;;5.63;2.73;;;17.10;99.90;;;;;;5077322;28;20485;-74
2021/10/02 09:35:49;;;;;;;7.00;3.47;;;17.10;99.90;;;;;;5086014;28;20839;-75
2021/10/02 09:38:18;;;;;;;5.70;4.90;;;17.10;99.90;;;;;;5080661;28;20192;-75
2021/10/02 09:40:53;;;;;;;12.70;5.30;;;17.00;99.90;;;;;;5085064;28;20185;-76
2021/10/02 09:43:21;;;;;;;7.13;3.40;;;16.90;99.90;;;;;;5077897;28;20188;-79
2021/10/02 09:45:50;;;;;;;7.60;3.87;;;16.80;99.90;;;;;;5081575;28;20178;-82
2021/10/02 09:48:29;;;;;;;6.27;4.53;;;16.70;99.90;;;;;;5092207;28;20182;-85
2021/10/02 09:51:04;;;;;;;6.77;3.90;;;16.70;99.90;;;;;;5084821;28;20213;-85
2021/10/02 09:53:39;;;;;;;9.20;4.73;;;16.70;99.90;;;;;;5087147;28;20229;-85
2021/10/02 09:56:11;;;;;;;6.63;4.47;;;16.60;99.90;;;;;;5091742;28;20197;-74
2021/10/02 09:58:40;;;;;;;6.53;4.50;;;16.70;99.90;;;;;;5091133;28;20318;-86
2021/10/02 10:01:27;;;;;;;6.67;4.20;;;16.70;99.90;;;;;;5093045;28;20182;-77
2021/10/02 10:03:55;;;;;;;7.90;4.03;;;16.80;99.90;;;;;;5093074;28;20231;-78
2021/10/02 10:06:25;;;;;;;7.80;4.23;;;16.70;99.90;;;;;;5092839;28;20236;-72
2021/10/02 10:09:04;;;;;;;8.63;4.20;;;16.50;99.90;;;;;;5092786;28;20172;-72
2021/10/02 10:11:51;;;;;;;8.83;4.53;;;16.40;99.90;;;;;;5087617;28;20222;-71
2021/10/02 10:14:27;;;;;;;8.53;2.60;;;16.30;99.90;;;;;;5076811;28;20198;-73
2021/10/02 10:16:57;;;;;;;4.63;3.03;;;16.20;99.90;;;;;;5092008;28;20473;-73
2021/10/02 10:19:29;;;;;;;8.50;4.60;;;16.10;99.90;;;;;;5092971;28;20525;-74
2021/10/02 10:22:11;;;;;;;9.97;4.40;;;16.20;99.90;;;;;;5092238;28;20189;-74
2021/10/02 10:24:41;;;;;;;9.27;3.83;;;16.20;99.90;;;;;;5082613;28;20196;-72
2021/10/02 10:27:09;;;;;;;8.00;3.60;;;16.30;99.90;;;;;;5092599;28;20178;-74
2021/10/02 10:29:42;;;;;;;6.77;3.97;;;16.30;99.90;;;;;;5092101;28;20212;-73
2021/10/02 10:32:11;;;;;;;8.90;3.23;;;16.30;99.90;;;;;;5092547;28;20176;-74
2021/10/02 10:34:42;;;;;;;7.07;3.13;;;16.30;99.90;;;;;;5092486;28;20228;-73
2021/10/02 10:37:11;;;;;;;6.63;3.30;;;16.30;99.90;;;;;;5092123;28;20547;-73
2021/10/02 10:39:39;;;;;;;5.17;3.30;;;16.30;99.90;;;;;;5090733;28;20183;-73
2021/10/02 10:42:07;;;;;;;6.27;3.27;;;16.20;99.90;;;;;;5079282;28;20197;-75
2021/10/02 10:44:36;;;;;;;7.93;3.10;;;16.20;99.90;;;;;;5088883;28;20191;-75
2021/10/02 10:47:03;;;;;;;5.67;3.47;;;16.30;99.90;;;;;;5091878;28;20229;-75
2021/10/02 10:49:31;;;;;;;4.07;3.10;;;16.20;99.90;;;;;;5092381;28;20190;-74
2021/10/02 10:52:01;;;;;;;5.73;2.93;;;16.10;99.90;;;;;;5091434;28;20697;-75
2021/10/02 10:54:29;;;;;;;6.27;3.00;;;16.10;99.90;;;;;;5089610;28;20216;-74
2021/10/02 10:56:56;;;;;;;5.20;3.60;;;16.00;99.90;;;;;;5090455;28;20225;-74
2021/10/02 10:59:24;;;;;;;7.63;3.30;;;16.10;99.90;;;;;;5091900;28;20528;-74
2021/10/02 11:01:51;;;;;;;6.53;3.10;;;16.10;99.90;;;;;;5091564;28;20178;-76
2021/10/02 11:04:34;;;;;;;6.47;3.40;;;16.00;99.90;;;;;;5090760;28;20178;-75
2021/10/02 11:07:02;;;;;;;5.50;3.50;;;16.10;99.90;;;;;;5091662;28;20191;-75
2021/10/02 11:09:37;;;;;;;8.17;4.40;;;16.10;99.90;;;;;;5091930;28;20633;-76
2021/10/02 11:12:07;;;;;;;10.53;4.40;;;16.10;99.90;;;;;;5091865;28;20770;-71
2021/10/02 11:14:54;;;;;;;11.77;4.13;;;16.10;99.90;;;;;;5091697;28;20673;-71
2021/10/02 11:17:36;;;;;;;8.23;4.57;;;16.10;99.90;;;;;;5091760;28;20545;-69
2021/10/02 11:20:26;;;;;;;9.77;5.83;;;16.10;99.90;;;;;;5092230;28;20640;-70
2021/10/02 11:23:41;;;;;;;6.57;4.47;;;16.10;99.90;;;;;;5082959;28;20190;-71
2021/10/02 11:26:23;;;;;;;8.60;4.27;;;16.00;99.90;;;;;;5091322;28;20265;-70
2021/10/02 11:29:21;;;;;;;8.50;4.30;;;15.90;99.90;;;;;;5083999;28;21648;-71
2021/10/02 11:31:50;;;;;;;7.43;4.23;;;16.00;99.90;;;;;;5084061;28;20188;-70
2021/10/02 11:34:24;;;;;;;7.80;4.53;;;16.00;99.90;;;;;;5095207;28;20212;-70
2021/10/02 11:36:55;;;;;;;7.60;4.70;;;16.00;99.90;;;;;;5093981;28;20287;-71
2021/10/02 11:39:31;;;;;;;9.33;4.90;;;16.00;99.90;;;;;;5095445;28;20648;-71
2021/10/02 11:42:07;;;;;;;10.77;5.50;;;16.00;99.90;;;;;;5081938;28;20210;-71
2021/10/02 11:44:37;;;;;;;8.63;5.30;;;15.90;99.90;;;;;;5086934;28;20715;-70
2021/10/02 11:47:39;;;;;;;6.60;5.13;;;15.90;99.90;;;;;;5094900;28;20209;-70
2021/10/02 11:50:14;;;;;;;7.07;4.50;;;15.90;99.90;;;;;;5094053;28;20252;-70
2021/10/02 11:52:50;;;;;;;10.57;5.63;;;15.80;99.90;;;;;;5095084;28;20166;-71
2021/10/02 11:55:41;;;;;;;13.67;6.30;;;15.70;99.90;;;;;;5094118;28;20202;-71
2021/10/02 11:58:11;;;;;;;8.60;5.27;;;15.70;99.90;;;;;;5094773;28;20188;-69
2021/10/02 12:00:45;;;;;;;11.73;5.83;;;15.70;99.90;;;;;;5095385;28;20634;-70
2021/10/02 12:03:27;;;;;;;10.33;5.70;;;15.70;99.90;;;;;;5095404;28;20349;-71
2021/10/02 12:05:57;;;;;;;10.67;5.40;;;15.70;99.90;;;;;;5087192;28;20636;-72
2021/10/02 12:08:25;;;;;;;9.30;6.07;;;15.70;99.90;;;;;;5095034;28;20186;-71
2021/10/02 12:11:03;;;;;;;9.17;5.50;;;15.60;99.90;;;;;;5094136;28;20188;-69
2021/10/02 12:13:35;;;;;;;10.43;5.70;;;15.60;99.90;;;;;;5081242;28;20191;-71
2021/10/02 12:16:08;;;;;;;9.90;6.20;;;15.60;99.90;;;;;;5090733;28;20583;-71
2021/10/02 12:18:57;;;;;;;11.03;6.47;;;15.50;99.90;;;;;;5094294;28;20171;-71
2021/10/02 12:21:27;;;;;;;9.60;5.23;;;15.60;99.90;;;;;;5089422;28;20178;-72
2021/10/02 12:24:02;;;;;;;8.07;5.80;;;15.50;99.90;;;;;;5093199;28;20179;-70
2021/10/02 12:26:32;;;;;;;9.50;5.67;;;15.40;99.90;;;;;;5083112;28;20197;-70
2021/10/02 12:29:06;;;;;;;7.83;5.70;;;15.40;99.90;;;;;;5093736;28;20179;-71
2021/10/02 12:31:57;;;;;;;7.33;5.23;;;15.40;99.90;;;;;;5095050;28;20582;-71
2021/10/02 12:34:33;;;;;;;7.00;5.27;;;15.40;99.90;;;;;;5091709;28;20214;-71
2021/10/02 12:37:13;;;;;;;9.13;5.67;;;15.40;99.90;;;;;;5094185;28;20640;-70
2021/10/02 12:39:50;;;;;;;8.03;5.70;;;15.40;99.90;;;;;;5092253;28;20544;-71
2021/10/02 12:42:42;;;;;;;9.90;6.20;;;15.40;99.90;;;;;;5084459;28;20178;-71
2021/10/02 12:45:19;;;;;;;8.83;6.03;;;15.40;99.90;;;;;;5092572;28;20217;-71
2021/10/02 12:47:52;;;;;;;9.33;5.97;;;15.40;99.90;;;;;;5092737;28;20182;-70
2021/10/02 12:50:23;;;;;;;9.10;5.67;;;15.30;99.90;;;;;;5093964;28;20698;-71
2021/10/02 12:52:57;;;;;;;10.90;6.20;;;15.30;99.90;;;;;;5090384;28;20175;-71
2021/10/02 12:55:26;;;;;;;8.40;6.07;;;15.30;99.90;;;;;;5090908;28;20213;-71
2021/10/02 12:57:54;;;;;;;11.17;7.33;;;15.20;99.90;;;;;;5093368;28;20232;-69
2021/10/02 13:00:27;;;;;;;12.23;7.43;;;15.20;99.90;;;;;;5094251;28;20577;-70
2021/10/02 13:02:57;;;;;;;8.47;6.37;;;15.20;99.90;;;;;;5094058;28;20531;-70
2021/10/02 13:05:30;;;;;;;9.23;6.67;;;15.30;99.90;;;;;;5092726;28;20704;-71
2021/10/02 13:07:59;;;;;;;11.87;7.07;;;15.20;99.90;;;;;;5093944;28;20175;-71
2021/10/02 13:10:35;;;;;;;9.97;7.27;;;15.20;99.90;;;;;;5093543;28;20186;-71
2021/10/02 13:13:13;;;;;;;10.93;7.23;;;15.10;99.90;;;;;;5093657;28;20313;-72
2021/10/02 13:15:43;;;;;;;13.77;7.33;;;15.10;99.90;;;;;;5093015;28;20219;-70
2021/10/02 13:18:11;;;;;;;14.93;7.23;;;15.10;99.90;;;;;;5093524;28;20588;-70
2021/10/02 13:20:53;;;;;;;11.63;6.53;;;15.20;99.90;;;;;;5093431;28;20246;-71
2021/10/02 13:23:23;;;;;;;7.73;6.30;;;15.10;99.90;;;;;;5092755;28;20179;-71
2021/10/02 13:26:00;;;;;;;8.37;6.43;;;15.10;99.90;;;;;;5092742;28;20186;-69
2021/10/02 13:28:35;;;;;;;7.50;6.03;;;15.00;99.90;;;;;;5093439;28;20186;-71
2021/10/02 13:31:29;;;;;;;8.33;6.60;;;15.00;99.90;;;;;;5078855;28;20178;-69
2021/10/02 13:34:06;;;;;;;8.40;6.27;;;15.00;99.90;;;;;;5093216;28;20189;-69
2021/10/02 13:36:36;;;;;;;11.27;6.93;;;14.90;99.90;;;;;;5090904;28;20209;-70
2021/10/02 13:39:11;;;;;;;9.37;6.57;;;14.90;99.90;;;;;;5092428;28;20236;-69
2021/10/02 13:41:40;;;;;;;7.43;6.00;;;14.90;99.90;;;;;;5090112;28;20184;-69
2021/10/02 13:44:07;;;;;;;9.07;7.17;;;14.90;99.90;;;;;;5082292;28;20182;-69
2021/10/02 13:46:38;;;;;;;15.43;7.80;;;14.90;99.90;;;;;;5086397;28;20175;-70
2021/10/02 13:49:08;;;;;;;11.07;8.13;;;14.90;99.90;;;;;;5091502;28;20588;-69
2021/10/02 13:51:36;;;;;;;10.13;6.93;;;14.90;99.90;;;;;;5084437;28;20166;-69
2021/10/02 13:54:04;;;;;;;9.73;7.13;;;14.90;99.90;;;;;;5091997;28;20261;-69
2021/10/02 13:56:36;;;;;;;10.97;7.87;;;14.80;99.90;;;;;;5093097;28;20278;-69
2021/10/02 13:59:04;;;;;;;11.60;7.83;;;14.90;99.90;;;;;;5092692;28;20681;-69
2021/10/02 14:01:32;;;;;;;13.33;8.13;;;14.80;99.90;;;;;;5092907;28;20182;-70